Time;durP1;ratioP1;P1;durP2;ratioP2;P2;SDS_P1;SDS_P2;PMS_P1;PMS_P2;Temp;Humidity;BMP_temperature;BMP_pressure;BME280_temperature;BME280_humidity;BME280_pressure;Samples;Min_cycle;Max_cycle;Signal;HPM_P1;HPM_P2
2023/02/03 00:00:11;;;;;;;;;23.50;21.00;;;;;-146.39;100.00;62182.44;6310896;20;2834754;-47
2023/02/03 00:02:39;;;;;;;;;33.00;26.00;;;;;-146.39;100.00;62182.44;6278557;20;2858605;-51
2023/02/03 00:05:08;;;;;;;;;22.50;19.00;;;;;-146.39;100.00;62182.44;6281769;20;2496256;-48
2023/02/03 00:07:38;;;;;;;;;29.50;26.00;;;;;-146.39;100.00;62182.44;6280852;20;2847270;-49
2023/02/03 00:10:08;;;;;;;;;24.50;23.00;;;;;-146.39;100.00;62182.44;6280890;20;2836916;-52
2023/02/03 00:12:37;;;;;;;;;26.33;19.00;;;;;-146.39;100.00;62182.44;6280697;20;3566931;-48
2023/02/03 00:15:06;;;;;;;;;18.00;16.00;;;;;-146.39;100.00;62182.44;6316255;20;3553387;-48
2023/02/03 00:17:35;;;;;;;;;19.33;19.00;;;;;-146.39;100.00;62182.44;6281494;20;3558697;-48
2023/02/03 00:20:03;;;;;;;;;24.00;20.00;;;;;-146.39;100.00;62182.44;6317656;20;2831568;-52
2023/02/03 00:22:32;;;;;;;;;17.67;17.67;;;;;-146.39;100.00;62182.44;6282946;20;3558719;-51
2023/02/03 00:25:01;;;;;;;;;23.00;16.67;;;;;-146.39;100.00;62182.44;6314120;20;3565915;-49
2023/02/03 00:27:29;;;;;;;;;21.33;16.67;;;;;-146.39;100.00;62182.44;6313756;20;3572129;-50
2023/02/03 00:29:58;;;;;;;;;17.00;12.67;;;;;-146.39;100.00;62182.44;6310778;20;3550251;-51
2023/02/03 00:32:26;;;;;;;;;9.33;7.00;;;;;-146.39;100.00;62182.44;6315985;20;3471133;-48
2023/02/03 00:34:56;;;;;;;;;10.80;10.80;;;;;-146.39;100.00;62182.44;6309142;20;2794064;-47
2023/02/03 00:37:23;;;;;;;;;11.00;10.00;;;;;-146.39;100.00;62182.44;6286534;20;2790406;-48
2023/02/03 00:39:51;;;;;;;;;14.50;10.50;;;;;-146.39;100.00;62182.44;6285177;20;2775349;-48
2023/02/03 00:42:19;;;;;;;;;12.00;11.00;;;;;-146.39;100.00;62182.44;6283498;20;2796098;-49
2023/02/03 00:44:47;;;;;;;;;13.33;8.67;;;;;-146.39;100.00;62182.44;6279156;20;3477340;-49
2023/02/03 00:47:15;;;;;;;;;9.25;7.75;;;;;-146.39;100.00;62182.44;6300222;20;1811870;-50
2023/02/03 00:49:43;;;;;;;;;10.00;10.00;;;;;-146.39;100.00;62182.44;6312136;20;2785726;-48
2023/02/03 00:52:11;;;;;;;;;11.00;7.00;;;;;-146.39;100.00;62182.44;6279725;20;3487810;-50
2023/02/03 00:54:39;;;;;;;;;10.00;7.00;;;;;-146.39;100.00;62182.44;6285521;20;2763173;-50
2023/02/03 00:57:06;;;;;;;;;8.67;7.00;;;;;-146.39;100.00;62182.44;6283241;20;3467046;-49
2023/02/03 00:59:35;;;;;;;;;6.75;6.75;;;;;-146.39;100.00;62182.44;6327947;20;1819120;-47
2023/02/03 01:02:04;;;;;;;;;10.75;6.00;;;;;-146.39;100.00;62182.44;6330499;20;1813930;-50
2023/02/03 01:04:32;;;;;;;;;5.00;5.00;;;;;-146.39;100.00;62182.44;6332797;20;1819146;-49
2023/02/03 01:07:01;;;;;;;;;7.00;5.75;;;;;-146.39;100.00;62182.44;6328924;20;1821380;-50
2023/02/03 01:09:34;;;;;;;;;7.50;6.00;;;;;-146.39;100.00;62182.44;6331353;20;1817739;-48
2023/02/03 01:12:03;;;;;;;;;9.00;5.50;;;;;-146.39;100.00;62182.44;6315514;20;2748245;-47
2023/02/03 01:14:32;;;;;;;;;7.50;6.00;;;;;-146.39;100.00;62182.44;6334110;20;1818015;-47
2023/02/03 01:17:00;;;;;;;;;7.75;5.00;;;;;-146.39;100.00;62182.44;6334071;20;1812846;-50
2023/02/03 01:19:29;;;;;;;;;8.50;5.25;;;;;-146.39;100.00;62182.44;6331421;20;1812837;-52
2023/02/03 01:21:57;;;;;;;;;6.00;6.00;;;;;-146.39;100.00;62182.44;6317479;20;2752385;-47
2023/02/03 01:24:26;;;;;;;;;9.00;5.25;;;;;-146.39;100.00;62182.44;6333400;20;1824383;-48
2023/02/03 01:26:53;;;;;;;;;5.67;5.67;;;;;-146.39;100.00;62182.44;6313420;20;3463901;-50
2023/02/03 01:29:23;;;;;;;;;6.00;6.00;;;;;-146.39;100.00;62182.44;6298953;20;1821129;-46
2023/02/03 01:31:52;;;;;;;;;8.50;5.25;;;;;-146.39;100.00;62182.44;6334685;20;1821170;-51
2023/02/03 01:34:20;;;;;;;;;8.50;7.00;;;;;-146.39;100.00;62182.44;6335138;20;1820688;-51
2023/02/03 01:36:48;;;;;;;;;7.00;6.00;;;;;-146.39;100.00;62182.44;6316272;20;2745093;-50
2023/02/03 01:39:17;;;;;;;;;5.50;3.25;;;;;-146.39;100.00;62182.44;6332042;20;1823201;-49
2023/02/03 01:41:46;;;;;;;;;7.00;5.25;;;;;-146.39;100.00;62182.44;6335034;20;1819104;-46
2023/02/03 01:44:46;;;;;;;;;5.00;5.00;;;;;-146.39;100.00;62182.44;6334024;20;1823355;-47
2023/02/03 01:47:49;;;;;;;;;4.00;4.00;;;;;-146.39;100.00;62182.44;6332571;20;1819187;-50
2023/02/03 01:50:36;;;;;;;;;6.33;5.67;;;;;-146.39;100.00;62182.44;6310635;20;3470168;-50
2023/02/03 01:53:11;;;;;;;;;9.00;6.50;;;;;-146.39;100.00;62182.44;6300734;20;1819065;-49
2023/02/03 01:55:46;;;;;;;;;7.00;5.00;;;;;-146.39;100.00;62182.44;6312588;20;2754675;-46
2023/02/03 01:58:23;;;;;;;;;5.50;5.50;;;;;-146.39;100.00;62182.44;6326770;20;1816525;-50
2023/02/03 02:00:53;;;;;;;;;6.00;6.00;;;;;-146.39;100.00;62182.44;6309236;20;2756552;-49
2023/02/03 02:03:31;;;;;;;;;3.00;3.00;;;;;-146.39;100.00;62182.44;6299851;20;1818042;-48
2023/02/03 02:06:10;;;;;;;;;5.00;5.00;;;;;-146.39;100.00;62182.44;6323250;20;1821170;-50
2023/02/03 02:08:45;;;;;;;;;1.00;1.00;;;;;-146.39;100.00;62182.44;6311274;20;3446129;-48
2023/02/03 02:11:14;;;;;;;;;3.75;3.75;;;;;-146.39;100.00;62182.44;6327517;20;1824900;-49
2023/02/03 02:13:45;;;;;;;;;3.50;3.50;;;;;-146.39;100.00;62182.44;6332030;20;1816039;-49
2023/02/03 02:16:59;;;;;;;;;4.25;2.25;;;;;-146.39;100.00;62182.44;6328868;20;1820144;-51
2023/02/03 02:20:42;;;;;;;;;6.00;4.67;;;;;-146.39;100.00;62182.44;6309563;20;3472342;-49
2023/02/03 02:23:36;;;;;;;;;10.50;6.00;;;;;-146.39;100.00;62182.44;6297671;20;1824460;-49
2023/02/03 02:26:44;;;;;;;;;50.00;42.50;;;;;-146.39;100.00;62182.44;6309907;20;2855523;-51
2023/02/03 02:30:13;;;;;;;;;8.33;6.00;;;;;-146.39;100.00;62182.44;6280927;20;3465876;-48
2023/02/03 02:33:02;;;;;;;;;6.75;4.00;;;;;-146.39;100.00;62182.44;6300965;20;1813340;-48
2023/02/03 02:35:56;;;;;;;;;5.00;3.00;;;;;-146.39;100.00;62182.44;6314979;20;3441999;-47
2023/02/03 02:39:12;;;;;;;;;5.00;5.00;;;;;-146.39;100.00;62182.44;6331810;20;1814728;-50
2023/02/03 02:41:51;;;;;;;;;5.25;4.50;;;;;-146.39;100.00;62182.44;6332649;20;1823290;-47
2023/02/03 02:44:34;;;;;;;;;5.00;4.00;;;;;-146.39;100.00;62182.44;6330309;20;1823344;-47
2023/02/03 02:47:20;;;;;;;;;5.50;3.50;;;;;-146.39;100.00;62182.44;6325094;20;1824241;-48
2023/02/03 02:49:57;;;;;;;;;2.00;2.00;;;;;-146.39;100.00;62182.44;6306632;20;3456519;-46
2023/02/03 02:52:30;;;;;;;;;4.00;4.00;;;;;-146.39;100.00;62182.44;6308802;20;3458735;-46
2023/02/03 02:55:26;;;;;;;;;2.00;2.00;;;;;-146.39;100.00;62182.44;6309609;20;3456562;-51
2023/02/03 02:58:00;;;;;;;;;3.00;1.67;;;;;-146.39;100.00;62182.44;6308719;20;3460705;-45
2023/02/03 03:00:35;;;;;;;;;2.50;2.00;;;;;-146.39;100.00;62182.44;6288518;20;1825339;-50
2023/02/03 03:03:18;;;;;;;;;5.00;2.00;;;;;-146.39;100.00;62182.44;6309820;20;3464944;-51
2023/02/03 03:06:02;;;;;;;;;5.67;4.33;;;;;-146.39;100.00;62182.44;6312143;20;3454700;-47
2023/02/03 03:08:50;;;;;;;;;2.00;2.00;;;;;-146.39;100.00;62182.44;6326094;20;1824350;-47
2023/02/03 03:11:18;;;;;;;;;4.00;4.00;;;;;-146.39;100.00;62182.44;6312600;20;3441990;-48
2023/02/03 03:13:53;;;;;;;;;2.67;2.67;;;;;-146.39;100.00;62182.44;6314070;20;3470133;-47
2023/02/03 03:16:28;;;;;;;;;2.00;2.00;;;;;-146.39;100.00;62182.44;6283735;20;3456538;-50
2023/02/03 03:19:11;;;;;;;;;5.00;2.00;;;;;-146.39;100.00;62182.44;6333088;20;1825268;-49
2023/02/03 03:21:48;;;;;;;;;2.50;2.50;;;;;-146.39;100.00;62182.44;6331969;20;1825369;-49
2023/02/03 03:24:30;;;;;;;;;4.00;2.00;;;;;-146.39;100.00;62182.44;6314332;20;3468012;-49
2023/02/03 03:27:13;;;;;;;;;3.00;2.50;;;;;-146.39;100.00;62182.44;6327305;20;1825355;-50
2023/02/03 03:30:08;;;;;;;;;5.50;2.00;;;;;-146.39;100.00;62182.44;6331345;20;1824377;-47
2023/02/03 03:32:37;;;;;;;;;3.67;3.67;;;;;-146.39;100.00;62182.44;6317144;20;3448677;-47
2023/02/03 03:35:07;;;;;;;;;3.00;3.00;;;;;-146.39;100.00;62182.44;6332146;20;1823450;-47
2023/02/03 03:37:51;;;;;;;;;5.00;3.75;;;;;-146.39;100.00;62182.44;6332165;20;1823788;-49
2023/02/03 03:40:32;;;;;;;;;4.67;3.00;;;;;-146.39;100.00;62182.44;6316125;20;3458720;-47
2023/02/03 03:43:13;;;;;;;;;5.00;5.00;;;;;-146.39;100.00;62182.44;6315498;20;3458587;-47
2023/02/03 03:45:54;;;;;;;;;5.67;2.00;;;;;-146.39;100.00;62182.44;6331256;20;1817981;-49
2023/02/03 03:48:46;;;;;;;;;2.67;2.33;;;;;-146.39;100.00;62182.44;6279883;20;3472254;-50
2023/02/03 03:51:29;;;;;;;;;5.00;4.00;;;;;-146.39;100.00;62182.44;6279964;20;3445126;-50
2023/02/03 03:54:05;;;;;;;;;6.00;4.00;;;;;-146.39;100.00;62182.44;6316140;20;3452384;-47
2023/02/03 03:56:47;;;;;;;;;5.00;4.00;;;;;-146.39;100.00;62182.44;6331642;20;1825301;-51
2023/02/03 03:59:20;;;;;;;;;2.67;2.67;;;;;-146.39;100.00;62182.44;6311669;20;3447289;-50
2023/02/03 04:01:51;;;;;;;;;2.00;2.00;;;;;-146.39;100.00;62182.44;6314871;20;3467945;-51
2023/02/03 04:04:23;;;;;;;;;4.75;4.50;;;;;-146.39;100.00;62182.44;6333614;20;1821408;-49
2023/02/03 04:06:53;;;;;;;;;9.00;5.00;;;;;-146.39;100.00;62182.44;6313502;20;3448394;-51
2023/02/03 04:09:22;;;;;;;;;5.00;5.00;;;;;-146.39;100.00;62182.44;6328303;20;1825324;-51
2023/02/03 04:12:00;;;;;;;;;9.25;9.25;;;;;-146.39;100.00;62182.44;6334381;20;1821272;-49
2023/02/03 04:14:37;;;;;;;;;12.50;8.25;;;;;-146.39;100.00;62182.44;6329901;20;1818427;-48
2023/02/03 04:17:07;;;;;;;;;12.75;10.50;;;;;-146.39;100.00;62182.44;6336022;20;1812810;-48
2023/02/03 04:19:35;;;;;;;;;8.00;5.00;;;;;-146.39;100.00;62182.44;6312611;20;2753432;-48
2023/02/03 04:22:03;;;;;;;;;8.00;6.00;;;;;-146.39;100.00;62182.44;6316607;20;3461744;-47
2023/02/03 04:24:31;;;;;;;;;9.00;7.00;;;;;-146.39;100.00;62182.44;6302374;20;1829559;-48
2023/02/03 04:27:03;;;;;;;;;13.57;12.14;;;;;-146.39;100.00;62182.44;6357168;20;1808692;-49
2023/02/03 04:29:32;;;;;;;;;11.00;9.00;;;;;-146.39;100.00;62182.44;6308590;20;2769154;-48
2023/02/03 04:31:59;;;;;;;;;23.00;20.00;;;;;-146.39;100.00;62182.44;6281536;20;2827385;-50
2023/02/03 04:34:27;;;;;;;;;22.50;17.00;;;;;-146.39;100.00;62182.44;6283013;20;2825270;-50
2023/02/03 04:36:57;;;;;;;;;12.80;9.80;;;;;-146.39;100.00;62182.44;6308785;20;2770250;-52
2023/02/03 04:39:26;;;;;;;;;10.75;8.00;;;;;-146.39;100.00;62182.44;6298965;20;1827491;-47
2023/02/03 04:41:54;;;;;;;;;6.00;6.00;;;;;-146.39;100.00;62182.44;6333444;20;1823124;-47
2023/02/03 04:44:23;;;;;;;;;10.50;8.25;;;;;-146.39;100.00;62182.44;6334165;20;1820120;-51
2023/02/03 04:46:51;;;;;;;;;9.50;8.00;;;;;-146.39;100.00;62182.44;6309810;20;2759742;-49
2023/02/03 04:49:19;;;;;;;;;5.50;5.50;;;;;-146.39;100.00;62182.44;6315443;20;2744018;-46
2023/02/03 04:51:50;;;;;;;;;7.67;6.00;;;;;-146.39;100.00;62182.44;6315856;20;3468000;-49
2023/02/03 04:54:18;;;;;;;;;5.00;4.00;;;;;-146.39;100.00;62182.44;6287061;20;3451333;-52
2023/02/03 04:56:46;;;;;;;;;6.00;5.00;;;;;-146.39;100.00;62182.44;6333660;20;1822770;-47
2023/02/03 04:59:15;;;;;;;;;5.50;5.00;;;;;-146.39;100.00;62182.44;6331209;20;1825867;-47
2023/02/03 05:01:43;;;;;;;;;5.00;3.50;;;;;-146.39;100.00;62182.44;6332892;20;1821863;-49
2023/02/03 05:04:12;;;;;;;;;4.25;4.25;;;;;-146.39;100.00;62182.44;6336181;20;1809739;-48
2023/02/03 05:06:40;;;;;;;;;7.33;5.33;;;;;-146.39;100.00;62182.44;6317202;20;3469035;-47
2023/02/03 05:09:08;;;;;;;;;9.25;5.50;;;;;-146.39;100.00;62182.44;6301651;20;1820117;-49
2023/02/03 05:11:36;;;;;;;;;5.00;3.33;;;;;-146.39;100.00;62182.44;6313984;20;3462926;-47
2023/02/03 05:14:04;;;;;;;;;4.00;4.00;;;;;-146.39;100.00;62182.44;6282015;20;3451312;-47
2023/02/03 05:16:32;;;;;;;;;4.33;4.00;;;;;-146.39;100.00;62182.44;6312569;20;3454514;-52
2023/02/03 05:19:01;;;;;;;;;5.00;5.00;;;;;-146.39;100.00;62182.44;6333479;20;1823441;-48
2023/02/03 05:21:28;;;;;;;;;9.00;8.00;;;;;-146.39;100.00;62182.44;6312949;20;3461738;-49
2023/02/03 05:23:56;;;;;;;;;5.67;4.33;;;;;-146.39;100.00;62182.44;6281573;20;3456634;-49
2023/02/03 05:26:24;;;;;;;;;6.67;5.00;;;;;-146.39;100.00;62182.44;6317046;20;3472133;-48
2023/02/03 05:28:51;;;;;;;;;9.00;6.00;;;;;-146.39;100.00;62182.44;6314458;20;3477441;-52
2023/02/03 05:31:22;;;;;;;;;11.50;5.00;;;;;-146.39;100.00;62182.44;6300921;20;1832684;-51
2023/02/03 05:33:50;;;;;;;;;5.00;4.67;;;;;-146.39;100.00;62182.44;6315272;20;3459634;-49
2023/02/03 05:36:17;;;;;;;;;2.00;2.00;;;;;-146.39;100.00;62182.44;6316742;20;3454950;-50
2023/02/03 05:38:45;;;;;;;;;9.67;6.00;;;;;-146.39;100.00;62182.44;6315592;20;3476411;-49
2023/02/03 05:44:00;;;;;;;;;12.00;12.00;;;;;-146.39;100.00;62182.44;6315378;20;2787796;-48
2023/02/03 05:46:28;;;;;;;;;7.00;7.00;;;;;-146.39;100.00;62182.44;6299213;20;1819085;-48
2023/02/03 05:48:57;;;;;;;;;9.75;9.00;;;;;-146.39;100.00;62182.44;6332232;20;1826854;-47
2023/02/03 05:51:25;;;;;;;;;14.75;12.75;;;;;-146.39;100.00;62182.44;6327213;20;1831666;-47
2023/02/03 05:53:53;;;;;;;;;17.00;15.00;;;;;-146.39;100.00;62182.44;6311823;20;2805496;-51
2023/02/03 05:56:21;;;;;;;;;4.67;4.67;;;;;-146.39;100.00;62182.44;6281372;20;3452383;-49
2023/02/03 05:58:52;;;;;;;;;11.00;11.00;;;;;-146.39;100.00;62182.44;6312637;20;2786776;-48
2023/02/03 06:01:20;;;;;;;;;13.50;7.75;;;;;-146.39;100.00;62182.44;6299042;20;1822844;-50
2023/02/03 06:03:48;;;;;;;;;4.00;4.00;;;;;-146.39;100.00;62182.44;6316829;20;3442038;-51
2023/02/03 06:06:17;;;;;;;;;9.33;4.67;;;;;-146.39;100.00;62182.44;6315627;20;3473210;-48
2023/02/03 06:08:46;;;;;;;;;5.75;5.00;;;;;-146.39;100.00;62182.44;6298954;20;1811777;-51
2023/02/03 06:11:13;;;;;;;;;5.00;5.00;;;;;-146.39;100.00;62182.44;6312971;20;3462753;-50
2023/02/03 06:13:41;;;;;;;;;15.50;11.50;;;;;-146.39;100.00;62182.44;6278084;20;2793082;-48
2023/02/03 06:16:11;;;;;;;;;12.40;12.20;;;;;-146.39;100.00;62182.44;6305084;20;2794019;-50
2023/02/03 06:18:39;;;;;;;;;19.00;18.00;;;;;-146.39;100.00;62182.44;6282536;20;3537805;-52
2023/02/03 06:21:08;;;;;;;;;47.50;40.00;;;;;-146.39;100.00;62182.44;6307267;20;2500284;-51
2023/02/03 06:23:36;;;;;;;;;29.67;21.33;;;;;-146.39;100.00;62182.44;6278893;20;3577368;-49
2023/02/03 06:26:04;;;;;;;;;22.00;20.00;;;;;-146.39;100.00;62182.44;6277210;20;2821213;-50
2023/02/03 06:28:32;;;;;;;;;3.67;3.67;;;;;-146.39;100.00;62182.44;6277227;20;3471132;-47
2023/02/03 06:31:01;;;;;;;;;12.25;9.00;;;;;-146.39;100.00;62182.44;6324977;20;1822796;-49
2023/02/03 06:33:29;;;;;;;;;16.50;13.00;;;;;-146.39;100.00;62182.44;6310890;20;2813837;-47
2023/02/03 06:35:58;;;;;;;;;10.00;9.00;;;;;-146.39;100.00;62182.44;6298878;20;1818983;-48
2023/02/03 06:38:26;;;;;;;;;10.00;10.00;;;;;-146.39;100.00;62182.44;6312734;20;3503895;-47
2023/02/03 06:40:55;;;;;;;;;21.00;17.67;;;;;-146.39;100.00;62182.44;6277918;20;3546114;-50
2023/02/03 06:43:23;;;;;;;;;17.00;17.00;;;;;-146.39;100.00;62182.44;6283287;20;2820111;-48
2023/02/03 06:45:52;;;;;;;;;36.50;29.00;;;;;-146.39;100.00;62182.44;6280076;20;2861101;-49
2023/02/03 06:48:19;;;;;;;;;20.00;18.00;;;;;-146.39;100.00;62182.44;6280857;20;2825296;-52
2023/02/03 06:50:47;;;;;;;;;19.50;19.50;;;;;-146.39;100.00;62182.44;6278486;20;2834726;-51
2023/02/03 06:53:15;;;;;;;;;32.00;30.00;;;;;-146.39;100.00;62182.44;6277338;20;2500366;-49
2023/02/03 06:55:44;;;;;;;;;23.67;20.67;;;;;-146.39;100.00;62182.44;6280094;20;3549158;-49
2023/02/03 06:58:12;;;;;;;;;23.67;15.67;;;;;-146.39;100.00;62182.44;6310077;20;3562790;-49
2023/02/03 07:00:41;;;;;;;;;9.25;7.25;;;;;-146.39;100.00;62182.44;6330285;20;1801393;-52
2023/02/03 07:03:08;;;;;;;;;9.50;6.00;;;;;-146.39;100.00;62182.44;6315458;20;2757812;-48
2023/02/03 07:05:36;;;;;;;;;14.00;13.00;;;;;-146.39;100.00;62182.44;6314715;20;2798262;-48
2023/02/03 07:08:07;;;;;;;;;22.00;16.83;;;;;-146.39;100.00;62182.44;6300959;20;2839076;-48
2023/02/03 07:10:35;;;;;;;;;17.67;14.00;;;;;-146.39;100.00;62182.44;6308863;20;3551353;-49
2023/02/03 07:13:05;;;;;;;;;31.00;29.00;;;;;-146.39;100.00;62182.44;6311719;20;2856642;-48
2023/02/03 07:15:35;;;;;;;;;23.67;18.67;;;;;-146.39;100.00;62182.44;6275644;20;3582599;-49
2023/02/03 07:18:03;;;;;;;;;24.00;18.00;;;;;-146.39;100.00;62182.44;6280847;20;2832582;-51
2023/02/03 07:20:32;;;;;;;;;31.67;25.33;;;;;-146.39;100.00;62182.44;6275207;20;3582680;-47
2023/02/03 07:23:00;;;;;;;;;18.50;17.00;;;;;-146.39;100.00;62182.44;6280285;20;2821136;-51
2023/02/03 07:25:29;;;;;;;;;23.00;23.00;;;;;-146.39;100.00;62182.44;6273152;20;3573293;-54
2023/02/03 07:27:58;;;;;;;;;19.67;17.67;;;;;-146.39;100.00;62182.44;6268777;20;3553489;-48
2023/02/03 07:30:26;;;;;;;;;13.50;13.00;;;;;-146.39;100.00;62182.44;6304408;20;2805611;-47
2023/02/03 07:32:54;;;;;;;;;13.00;12.00;;;;;-146.39;100.00;62182.44;6277950;20;2792000;-49
2023/02/03 07:35:24;;;;;;;;;13.40;13.40;;;;;-146.39;100.00;62182.44;6305373;20;2803410;-49
2023/02/03 07:37:53;;;;;;;;;35.50;28.00;;;;;-146.39;100.00;62182.44;6278682;20;2858596;-46
2023/02/03 07:40:21;;;;;;;;;47.00;38.50;;;;;-146.39;100.00;62182.44;6277051;20;2870102;-50
2023/02/03 07:42:49;;;;;;;;;35.00;28.50;;;;;-146.39;100.00;62182.44;6277995;20;2492479;-49
2023/02/03 07:45:20;;;;;;;;;71.67;52.00;;;;;-146.39;100.00;62182.44;6278296;20;3645109;-51
2023/02/03 07:47:50;;;;;;;;;68.67;49.33;;;;;-146.39;100.00;62182.44;6309621;20;3626380;-49
2023/02/03 07:50:19;;;;;;;;;32.00;26.50;;;;;-146.39;100.00;62182.44;6306978;20;2852494;-50
2023/02/03 07:52:51;;;;;;;;;26.33;21.67;;;;;-146.39;100.00;62182.44;6281199;20;3567102;-52
2023/02/03 07:55:18;;;;;;;;;19.00;15.50;;;;;-146.39;100.00;62182.44;6314852;20;2848392;-48
2023/02/03 07:57:46;;;;;;;;;22.00;17.00;;;;;-146.39;100.00;62182.44;6286068;20;2817142;-49
2023/02/03 08:00:16;;;;;;;;;17.33;16.00;;;;;-146.39;100.00;62182.44;6284071;20;3562814;-48
2023/02/03 08:02:46;;;;;;;;;21.67;18.00;;;;;-146.39;100.00;62182.44;6317843;20;3581603;-48
2023/02/03 08:05:16;;;;;;;;;21.00;17.67;;;;;-146.39;100.00;62182.44;6315976;20;3555467;-50
2023/02/03 08:07:45;;;;;;;;;21.33;18.33;;;;;-146.39;100.00;62182.44;6315550;20;3558706;-52
2023/02/03 08:10:16;;;;;;;;;30.67;22.33;;;;;-146.39;100.00;62182.44;6282592;20;3580603;-51
2023/02/03 08:12:45;;;;;;;;;30.00;28.50;;;;;-146.39;100.00;62182.44;6281306;20;2841962;-49
2023/02/03 08:15:16;;;;;;;;;28.67;22.33;;;;;-146.39;100.00;62182.44;6284653;20;3588259;-48
2023/02/03 08:17:44;;;;;;;;;31.50;27.00;;;;;-146.39;100.00;62182.44;6280853;20;2500376;-50
2023/02/03 08:20:12;;;;;;;;;29.00;29.00;;;;;-146.39;100.00;62182.44;6283504;20;2504507;-51
2023/02/03 08:22:40;;;;;;;;;25.50;21.00;;;;;-146.39;100.00;62182.44;6283695;20;2500888;-53
2023/02/03 08:25:10;;;;;;;;;27.67;19.67;;;;;-146.39;100.00;62182.44;6287172;20;3572596;-55
2023/02/03 08:27:39;;;;;;;;;13.00;13.00;;;;;-146.39;100.00;62182.44;6285796;20;2806672;-53
2023/02/03 08:30:12;;;;;;;;;27.67;23.00;;;;;-146.39;100.00;62182.44;6312862;20;3576431;-53
2023/02/03 08:32:40;;;;;;;;;31.00;24.00;;;;;-146.39;100.00;62182.44;6283350;20;2571195;-52
2023/02/03 08:35:09;;;;;;;;;24.33;20.00;;;;;-146.39;100.00;62182.44;6283322;20;3560797;-49
2023/02/03 08:37:37;;;;;;;;;24.00;17.00;;;;;-146.39;100.00;62182.44;6283515;20;3570153;-49
2023/02/03 08:40:08;;;;;;;;;21.67;16.00;;;;;-146.39;100.00;62182.44;6281721;20;3536854;-48
2023/02/03 08:42:38;;;;;;;;;16.33;16.17;;;;;-146.39;100.00;62182.44;6335205;20;2840130;-51
2023/02/03 08:45:07;;;;;;;;;17.00;13.00;;;;;-146.39;100.00;62182.44;6319756;20;2806595;-49
2023/02/03 08:47:36;;;;;;;;;18.33;15.67;;;;;-146.39;100.00;62182.44;6286256;20;3545064;-50
2023/02/03 08:50:07;;;;;;;;;20.50;16.00;;;;;-146.39;100.00;62182.44;6317843;20;2508715;-51
2023/02/03 08:52:37;;;;;;;;;16.20;16.00;;;;;-146.39;100.00;62182.44;6339174;20;2822227;-52
2023/02/03 08:55:06;;;;;;;;;16.67;13.67;;;;;-146.39;100.00;62182.44;6283435;20;3554428;-51
2023/02/03 08:57:36;;;;;;;;;21.67;15.67;;;;;-146.39;100.00;62182.44;6313721;20;3557547;-49
2023/02/03 09:00:06;;;;;;;;;22.00;19.00;;;;;-146.39;100.00;62182.44;6278880;20;3556505;-50
2023/02/03 09:02:34;;;;;;;;;15.67;15.00;;;;;-146.39;100.00;62182.44;6312168;20;3551295;-49
2023/02/03 09:05:02;;;;;;;;;25.00;18.00;;;;;-146.39;100.00;62182.44;6314571;20;2820190;-48
2023/02/03 09:07:30;;;;;;;;;16.00;13.00;;;;;-146.39;100.00;62182.44;6282350;20;2825403;-53
2023/02/03 09:09:59;;;;;;;;;20.00;17.67;;;;;-146.39;100.00;62182.44;6283046;20;3547265;-52
2023/02/03 09:12:27;;;;;;;;;21.67;19.67;;;;;-146.39;100.00;62182.44;6278763;20;3557615;-48
2023/02/03 09:14:55;;;;;;;;;27.00;19.50;;;;;-146.39;100.00;62182.44;6316499;20;2836845;-48
2023/02/03 09:17:23;;;;;;;;;34.50;28.50;;;;;-146.39;100.00;62182.44;6278848;20;2500368;-50
2023/02/03 09:19:51;;;;;;;;;26.50;24.00;;;;;-146.39;100.00;62182.44;6277818;20;2492247;-51
2023/02/03 09:22:19;;;;;;;;;20.67;20.67;;;;;-146.39;100.00;62182.44;6287280;20;3559688;-48
2023/02/03 09:24:50;;;;;;;;;26.00;22.00;;;;;-146.39;100.00;62182.44;6281175;20;3571138;-51
2023/02/03 09:27:19;;;;;;;;;27.33;23.33;;;;;-146.39;100.00;62182.44;6282467;20;3582712;-52
2023/02/03 09:29:48;;;;;;;;;44.33;38.00;;;;;-146.39;100.00;62182.44;6280220;20;3621285;-50
2023/02/03 09:32:17;;;;;;;;;30.50;22.50;;;;;-146.39;100.00;62182.44;6312636;20;2853417;-50
2023/02/03 09:34:44;;;;;;;;;28.50;27.00;;;;;-146.39;100.00;62182.44;6280447;20;2498385;-49
2023/02/03 09:37:12;;;;;;;;;30.00;25.50;;;;;-146.39;100.00;62182.44;6279092;20;2500236;-52
2023/02/03 09:39:40;;;;;;;;;25.50;24.50;;;;;-146.39;100.00;62182.44;6278354;20;2500300;-52
2023/02/03 09:42:32;;;;;;;;;87.00;61.00;;;;;-146.39;100.00;62182.44;6285323;20;2787798;-51
2023/02/03 09:45:17;;;;;;;;;14.67;14.67;;;;;-146.39;100.00;62182.44;6276391;20;3544049;-51
2023/02/03 09:47:52;;;;;;;;;12.25;7.75;;;;;-146.39;100.00;62182.44;6327469;20;1816132;-49
2023/02/03 09:50:33;;;;;;;;;17.00;13.00;;;;;-146.39;100.00;62182.44;6307203;20;2820096;-50
2023/02/03 09:53:17;;;;;;;;;10.00;9.00;;;;;-146.39;100.00;62182.44;6283516;20;2748226;-51
2023/02/03 09:55:47;;;;;;;;;16.33;14.67;;;;;-146.39;100.00;62182.44;6309388;20;3548170;-47
2023/02/03 09:58:20;;;;;;;;;17.00;15.00;;;;;-146.39;100.00;62182.44;6314828;20;3428388;-50
2023/02/03 10:00:59;;;;;;;;;15.00;14.33;;;;;-146.39;100.00;62182.44;6305417;20;3539895;-51
2023/02/03 10:04:26;;;;;;;;;23.50;19.00;;;;;-146.39;100.00;62182.44;6312606;20;2824294;-49
2023/02/03 10:07:25;;;;;;;;;25.50;18.50;;;;;-146.39;100.00;62182.44;6278441;20;2832797;-47
2023/02/03 10:10:38;;;;;;;;;26.00;24.67;;;;;-146.39;100.00;62182.44;6280988;20;3583580;-52
2023/02/03 10:14:08;;;;;;;;;38.00;28.00;;;;;-146.39;100.00;62182.44;6273743;20;2867097;-47
2023/02/03 10:17:16;;;;;;;;;40.67;28.67;;;;;-146.39;100.00;62182.44;6278830;20;2857682;-52
2023/02/03 10:20:02;;;;;;;;;29.00;24.00;;;;;-146.39;100.00;62182.44;6301648;20;2500508;-50
2023/02/03 10:22:49;;;;;;;;;32.00;24.00;;;;;-146.39;100.00;62182.44;6272913;20;2494278;-50
2023/02/03 10:25:40;;;;;;;;;34.50;28.00;;;;;-146.39;100.00;62182.44;6271358;20;2500304;-49
2023/02/03 10:28:19;;;;;;;;;29.33;20.67;;;;;-146.39;100.00;62182.44;6271669;20;3581545;-46
2023/02/03 10:31:01;;;;;;;;;33.33;25.67;;;;;-146.39;100.00;62182.44;6303999;20;3584647;-46
2023/02/03 10:33:31;;;;;;;;;48.00;38.50;;;;;-146.39;100.00;62182.44;6276877;20;2885808;-47
2023/02/03 10:36:22;;;;;;;;;65.00;50.00;;;;;-146.39;100.00;62182.44;6280620;20;2871137;-48
2023/02/03 10:39:11;;;;;;;;;32.00;26.50;;;;;-146.39;100.00;62182.44;6279041;20;2837964;-45
2023/02/03 10:41:38;;;;;;;;;38.50;31.50;;;;;-146.39;100.00;62182.44;6280436;20;2500830;-48
2023/02/03 10:44:12;;;;;;;;;35.50;34.00;;;;;-146.39;100.00;62182.44;6280349;20;2865055;-45
2023/02/03 10:46:42;;;;;;;;;37.00;35.00;;;;;-146.39;100.00;62182.44;6277640;20;2500292;-44
2023/02/03 10:49:15;;;;;;;;;32.00;27.00;;;;;-146.39;100.00;62182.44;6279651;20;2847292;-45
2023/02/03 10:51:51;;;;;;;;;27.00;25.50;;;;;-146.39;100.00;62182.44;6275275;20;2500320;-45
2023/02/03 10:54:35;;;;;;;;;33.00;31.00;;;;;-146.39;100.00;62182.44;6276555;20;2498248;-47
2023/02/03 10:57:22;;;;;;;;;38.00;32.00;;;;;-146.39;100.00;62182.44;6279526;20;2500270;-44
2023/02/03 10:59:50;;;;;;;;;33.00;30.00;;;;;-146.39;100.00;62182.44;6276130;20;2508646;-47
2023/02/03 11:02:30;;;;;;;;;45.50;33.50;;;;;-146.39;100.00;62182.44;6281784;20;2868051;-45
2023/02/03 11:05:28;;;;;;;;;31.00;26.50;;;;;-146.39;100.00;62182.44;6277080;20;2845207;-46
2023/02/03 11:07:57;;;;;;;;;40.00;29.00;;;;;-146.39;100.00;62182.44;6278418;20;2868011;-44
2023/02/03 11:10:38;;;;;;;;;39.50;29.00;;;;;-146.39;100.00;62182.44;6275249;20;2856660;-49
2023/02/03 11:13:25;;;;;;;;;33.50;31.50;;;;;-146.39;100.00;62182.44;6275518;20;2835719;-45
2023/02/03 11:16:06;;;;;;;;;37.00;32.50;;;;;-146.39;100.00;62182.44;6276777;20;2862805;-44